Time;durP1;ratioP1;P1;durP2;ratioP2;P2;SDS_P1;SDS_P2;PMS_P1;PMS_P2;Temp;Humidity;BMP_temperature;BMP_pressure;BME280_temperature;BME280_humidity;BME280_pressure;Samples;Min_cycle;Max_cycle;Signal;HPM_P1;HPM_P2
2022/10/28 00:00:04;;;;;;;6.27;3.73;;;19.90;99.90;;;;;;5074166;28;20192;-74
2022/10/28 00:02:30;;;;;;;6.27;3.63;;;19.90;99.90;;;;;;5074994;28;20625;-74
2022/10/28 00:04:55;;;;;;;6.13;2.70;;;19.90;99.90;;;;;;5075295;28;20617;-74
2022/10/28 00:07:21;;;;;;;6.83;3.10;;;19.90;99.90;;;;;;5075096;28;20257;-74
2022/10/28 00:09:47;;;;;;;6.27;2.90;;;19.90;99.90;;;;;;5075205;28;20326;-74
2022/10/28 00:12:12;;;;;;;6.83;3.20;;;19.90;99.90;;;;;;5074801;28;20175;-74
2022/10/28 00:14:38;;;;;;;7.63;3.10;;;20.00;99.90;;;;;;5075203;28;20604;-74
2022/10/28 00:17:04;;;;;;;8.17;3.30;;;20.00;99.90;;;;;;5078362;28;20172;-75
2022/10/28 00:19:30;;;;;;;5.83;2.70;;;20.00;99.90;;;;;;5075031;28;20315;-74
2022/10/28 00:21:56;;;;;;;5.97;2.53;;;20.10;99.90;;;;;;5074771;28;20169;-75
2022/10/28 00:24:21;;;;;;;3.90;2.93;;;20.10;99.90;;;;;;5074867;28;20569;-74
2022/10/28 00:26:47;;;;;;;6.43;3.00;;;20.10;99.90;;;;;;5074692;28;20632;-74
2022/10/28 00:29:16;;;;;;;6.57;2.40;;;20.10;99.90;;;;;;5074788;28;20192;-74
2022/10/28 00:31:42;;;;;;;8.03;2.70;;;20.10;99.90;;;;;;5073849;28;20943;-74
2022/10/28 00:34:11;;;;;;;4.60;2.60;;;20.10;99.90;;;;;;5074455;28;20653;-73
2022/10/28 00:36:39;;;;;;;10.53;3.17;;;20.20;99.90;;;;;;5075587;28;20659;-74
2022/10/28 00:39:17;;;;;;;5.20;2.60;;;20.20;99.90;;;;;;5074673;28;20780;-74
2022/10/28 00:41:49;;;;;;;5.27;2.70;;;20.20;99.90;;;;;;5074722;28;20631;-74
2022/10/28 00:44:42;;;;;;;8.00;3.43;;;20.20;99.90;;;;;;5074490;28;20933;-74
2022/10/28 00:47:16;;;;;;;6.83;2.90;;;20.20;99.90;;;;;;5056721;28;20622;-74
2022/10/28 00:49:43;;;;;;;5.47;2.57;;;20.30;99.90;;;;;;5073955;28;20592;-74
2022/10/28 00:52:17;;;;;;;4.80;3.10;;;20.30;99.90;;;;;;5072654;28;20570;-75
2022/10/28 00:54:44;;;;;;;6.77;3.40;;;20.30;99.90;;;;;;5059674;28;20558;-75
2022/10/28 00:57:15;;;;;;;7.40;3.10;;;20.30;99.90;;;;;;5074238;28;20665;-75
2022/10/28 00:59:44;;;;;;;4.07;2.33;;;20.30;99.90;;;;;;5074322;28;20606;-75
2022/10/28 01:02:10;;;;;;;8.43;3.57;;;20.30;99.90;;;;;;5072370;28;20657;-75
2022/10/28 01:04:37;;;;;;;6.20;2.93;;;20.40;99.90;;;;;;5074113;28;20685;-75
2022/10/28 01:07:03;;;;;;;5.93;3.00;;;20.40;99.90;;;;;;5074081;28;20622;-75
2022/10/28 01:09:28;;;;;;;6.40;2.17;;;20.40;99.90;;;;;;5056020;28;21012;-75
2022/10/28 01:12:21;;;;;;;8.27;3.03;;;20.40;99.90;;;;;;5073758;28;20222;-75
2022/10/28 01:15:21;;;;;;;7.30;3.27;;;20.30;99.90;;;;;;5074099;28;20168;-75
2022/10/28 01:18:01;;;;;;;6.67;3.53;;;20.30;99.90;;;;;;5074026;28;20617;-75
2022/10/28 01:20:45;;;;;;;6.53;3.03;;;20.40;99.90;;;;;;5073783;28;21156;-75
2022/10/28 01:23:48;;;;;;;5.00;3.17;;;20.40;99.90;;;;;;5073352;28;20930;-75
2022/10/28 01:26:35;;;;;;;7.63;3.80;;;20.40;99.90;;;;;;5073797;28;20570;-75
2022/10/28 01:29:18;;;;;;;13.00;3.13;;;20.50;99.90;;;;;;5069578;28;20673;-75
2022/10/28 01:32:00;;;;;;;8.80;3.50;;;20.40;99.90;;;;;;5063126;28;20626;-75
2022/10/28 01:34:32;;;;;;;14.70;2.83;;;20.40;99.90;;;;;;5063952;28;20986;-75
2022/10/28 01:37:05;;;;;;;3.70;2.67;;;20.40;99.90;;;;;;5063676;28;21047;-76
2022/10/28 01:39:45;;;;;;;10.33;3.53;;;20.40;99.90;;;;;;5070785;28;20665;-75
2022/10/28 01:42:40;;;;;;;13.50;3.60;;;20.40;99.90;;;;;;5073088;28;20566;-75
2022/10/28 01:45:13;;;;;;;9.00;3.93;;;20.40;99.90;;;;;;5072152;28;20624;-75
2022/10/28 01:47:39;;;;;;;5.70;2.83;;;20.40;99.90;;;;;;5073238;28;20614;-75
2022/10/28 01:50:25;;;;;;;6.27;2.60;;;20.40;99.90;;;;;;5073305;28;20950;-81
2022/10/28 01:52:55;;;;;;;5.40;2.73;;;20.40;99.90;;;;;;5072942;28;20171;-75
2022/10/28 01:55:33;;;;;;;7.60;3.70;;;20.40;99.90;;;;;;5073120;28;20572;-76
2022/10/28 01:58:01;;;;;;;4.87;2.17;;;20.40;99.90;;;;;;5073202;28;20581;-75
2022/10/28 02:00:27;;;;;;;5.63;3.03;;;20.40;99.90;;;;;;5072624;28;20824;-76
2022/10/28 02:02:55;;;;;;;7.20;2.60;;;20.40;99.90;;;;;;5072310;28;20571;-76
2022/10/28 02:05:46;;;;;;;6.23;2.80;;;20.40;99.90;;;;;;5071881;28;20929;-75
2022/10/28 02:08:17;;;;;;;5.33;2.90;;;20.40;99.90;;;;;;5073048;28;20626;-75
2022/10/28 02:11:19;;;;;;;11.20;2.43;;;20.40;99.90;;;;;;5054975;28;20578;-76
2022/10/28 02:14:20;;;;;;;4.93;2.43;;;20.40;99.90;;;;;;5072521;28;20565;-75
2022/10/28 02:16:53;;;;;;;9.37;4.17;;;20.40;99.90;;;;;;5072851;28;20590;-76
2022/10/28 02:19:47;;;;;;;6.30;2.60;;;20.40;99.90;;;;;;5054704;28;20606;-75
2022/10/28 02:22:21;;;;;;;7.20;2.50;;;20.40;99.90;;;;;;5072410;28;20587;-76
2022/10/28 02:25:14;;;;;;;6.67;2.70;;;20.40;99.90;;;;;;5054543;28;20717;-75
2022/10/28 02:27:52;;;;;;;8.40;3.33;;;20.40;99.90;;;;;;5072375;28;20610;-75
2022/10/28 02:30:36;;;;;;;5.10;2.20;;;20.40;99.90;;;;;;5072561;28;21005;-75
2022/10/28 02:33:05;;;;;;;12.10;3.20;;;20.40;99.90;;;;;;5071971;28;20601;-75
2022/10/28 02:35:38;;;;;;;6.00;3.07;;;20.30;99.90;;;;;;5072475;28;20949;-75
2022/10/28 02:38:09;;;;;;;5.27;2.37;;;20.30;99.90;;;;;;5072346;28;20670;-75
2022/10/28 02:40:38;;;;;;;4.73;2.57;;;20.30;99.90;;;;;;5072378;28;20682;-75
2022/10/28 02:43:08;;;;;;;8.10;3.20;;;20.20;99.90;;;;;;5071786;28;20617;-75
2022/10/28 02:45:39;;;;;;;6.13;2.83;;;20.20;99.90;;;;;;5074191;28;20571;-75
2022/10/28 02:48:10;;;;;;;6.00;2.60;;;20.20;99.90;;;;;;5072141;28;21025;-75
2022/10/28 02:50:42;;;;;;;9.83;2.90;;;20.20;99.90;;;;;;5071812;28;20634;-75
2022/10/28 02:53:15;;;;;;;7.27;2.90;;;20.20;99.90;;;;;;5071774;28;20919;-75
2022/10/28 02:55:45;;;;;;;8.90;3.13;;;20.20;99.90;;;;;;5070757;28;20606;-74
2022/10/28 02:58:11;;;;;;;8.67;3.00;;;20.30;99.90;;;;;;5071891;28;20590;-75
2022/10/28 03:00:36;;;;;;;6.03;2.70;;;20.20;99.90;;;;;;5076378;22;20660;-74
2022/10/28 03:03:02;;;;;;;7.00;4.60;;;20.20;99.90;;;;;;5037754;28;20640;-74
2022/10/28 03:05:28;;;;;;;4.83;2.30;;;20.20;99.90;;;;;;5048777;28;20628;-73
2022/10/28 03:07:54;;;;;;;5.87;2.70;;;20.20;99.90;;;;;;5046786;28;20638;-73
2022/10/28 03:10:20;;;;;;;4.83;1.90;;;20.20;99.90;;;;;;5024789;28;20615;-74
2022/10/28 03:12:46;;;;;;;7.93;3.10;;;20.20;99.90;;;;;;5050956;28;20165;-74
2022/10/28 03:15:11;;;;;;;5.03;2.40;;;20.20;99.90;;;;;;5037694;28;20607;-74
2022/10/28 03:17:39;;;;;;;8.10;2.73;;;20.20;99.90;;;;;;5023488;28;20181;-73
2022/10/28 03:20:05;;;;;;;6.63;2.47;;;20.20;99.90;;;;;;5051243;28;20282;-74
2022/10/28 03:22:31;;;;;;;6.80;2.10;;;20.20;99.90;;;;;;5049897;28;20575;-73
2022/10/28 03:24:56;;;;;;;4.90;2.10;;;20.20;99.90;;;;;;5051526;28;20582;-73
2022/10/28 03:27:22;;;;;;;8.10;2.37;;;20.20;99.90;;;;;;5050101;28;20189;-74
2022/10/28 03:29:48;;;;;;;5.93;3.20;;;20.20;99.90;;;;;;5051462;28;20683;-74
2022/10/28 03:32:14;;;;;;;6.53;2.30;;;20.20;99.90;;;;;;5048183;28;20162;-74
2022/10/28 03:34:39;;;;;;;6.43;2.10;;;20.20;99.90;;;;;;5031413;28;20564;-74
2022/10/28 03:37:05;;;;;;;4.53;2.77;;;20.20;99.90;;;;;;5031375;28;20629;-74
2022/10/28 03:39:31;;;;;;;7.83;2.70;;;20.20;99.90;;;;;;5030048;28;20529;-74
2022/10/28 03:41:57;;;;;;;5.20;3.40;;;20.20;99.90;;;;;;5030946;28;20634;-73
2022/10/28 03:44:23;;;;;;;7.10;3.10;;;20.20;99.90;;;;;;5031370;28;20176;-73
2022/10/28 03:46:48;;;;;;;4.27;2.63;;;20.20;99.90;;;;;;5031272;28;20181;-73
2022/10/28 03:49:14;;;;;;;5.93;2.70;;;20.20;99.90;;;;;;5030069;28;20196;-74
2022/10/28 03:51:40;;;;;;;7.43;2.33;;;20.20;99.90;;;;;;5035415;28;20773;-73
2022/10/28 03:54:05;;;;;;;6.17;2.13;;;20.20;99.90;;;;;;5045492;28;20169;-74
2022/10/28 03:56:31;;;;;;;4.03;1.90;;;20.20;99.90;;;;;;5016244;28;20226;-73
2022/10/28 03:58:57;;;;;;;7.93;2.50;;;20.10;99.90;;;;;;5026930;28;20231;-73
2022/10/28 04:01:22;;;;;;;5.60;2.73;;;20.10;99.90;;;;;;5021543;28;20206;-74
2022/10/28 04:03:48;;;;;;;16.03;2.57;;;20.00;99.90;;;;;;5035653;28;20264;-74
2022/10/28 04:06:15;;;;;;;4.60;2.53;;;20.00;99.90;;;;;;5042418;28;20591;-74
2022/10/28 04:08:41;;;;;;;6.33;2.67;;;19.90;99.90;;;;;;5024914;28;20200;-74
2022/10/28 04:11:07;;;;;;;7.27;2.57;;;19.90;99.90;;;;;;5034560;28;20626;-73
2022/10/28 04:13:33;;;;;;;7.77;3.47;;;19.90;99.90;;;;;;5030747;28;20648;-74
2022/10/28 04:16:00;;;;;;;4.60;3.13;;;19.90;99.90;;;;;;5050828;28;20980;-74
2022/10/28 04:18:26;;;;;;;6.17;3.07;;;19.80;99.90;;;;;;5051064;28;20591;-74
2022/10/28 04:20:52;;;;;;;5.70;3.07;;;19.80;99.90;;;;;;5050890;28;20761;-73
2022/10/28 04:23:18;;;;;;;6.40;3.00;;;19.80;99.90;;;;;;5050699;28;20637;-74
2022/10/28 04:25:44;;;;;;;9.30;2.90;;;19.80;99.90;;;;;;5053631;28;20259;-74
2022/10/28 04:28:10;;;;;;;9.70;2.97;;;19.80;99.90;;;;;;5053634;28;20208;-73
2022/10/28 04:30:35;;;;;;;7.50;3.60;;;19.70;99.90;;;;;;5054895;28;20588;-74
2022/10/28 04:33:01;;;;;;;7.90;2.83;;;19.80;99.90;;;;;;5054300;28;20543;-74
2022/10/28 04:35:27;;;;;;;5.33;3.10;;;19.70;99.90;;;;;;5053459;28;20921;-74
2022/10/28 04:37:53;;;;;;;4.10;2.20;;;19.80;99.90;;;;;;5054865;28;20514;-75
2022/10/28 04:40:18;;;;;;;6.67;2.43;;;19.80;99.90;;;;;;5054417;28;20212;-74
2022/10/28 04:42:44;;;;;;;6.83;2.50;;;19.80;99.90;;;;;;5053973;28;20192;-73
2022/10/28 04:45:10;;;;;;;4.93;2.60;;;19.70;99.90;;;;;;5053416;28;20521;-74
2022/10/28 04:47:36;;;;;;;5.90;3.37;;;19.80;99.90;;;;;;5036724;28;20270;-74
2022/10/28 04:50:03;;;;;;;12.03;4.10;;;19.70;99.90;;;;;;5055111;28;20645;-74
2022/10/28 04:52:29;;;;;;;5.53;2.20;;;19.70;99.90;;;;;;5054009;28;20504;-74
2022/10/28 04:54:54;;;;;;;5.73;3.13;;;19.80;99.90;;;;;;5054131;28;20571;-74
2022/10/28 04:57:20;;;;;;;8.60;2.73;;;19.80;99.90;;;;;;5054165;28;20177;-74
2022/10/28 04:59:46;;;;;;;4.87;2.60;;;19.80;99.90;;;;;;5035835;28;20172;-74
2022/10/28 05:02:12;;;;;;;11.70;3.33;;;19.80;99.90;;;;;;5053642;28;20181;-74
2022/10/28 05:04:37;;;;;;;7.83;2.50;;;19.80;99.90;;;;;;5035911;28;20579;-73
2022/10/28 05:07:03;;;;;;;5.30;3.40;;;19.80;99.90;;;;;;5053838;28;20193;-74
2022/10/28 05:09:29;;;;;;;5.93;2.80;;;19.80;99.90;;;;;;5053846;28;20176;-74
2022/10/28 05:11:55;;;;;;;6.80;2.63;;;19.70;99.90;;;;;;5041972;28;20679;-73
2022/10/28 05:14:20;;;;;;;6.03;2.47;;;19.70;99.90;;;;;;5050446;28;20166;-74
2022/10/28 05:16:46;;;;;;;4.23;2.33;;;19.60;99.90;;;;;;5053292;28;20169;-74
2022/10/28 05:19:12;;;;;;;7.90;3.03;;;19.60;99.90;;;;;;5053896;28;20177;-74
2022/10/28 05:21:38;;;;;;;6.70;2.50;;;19.60;99.90;;;;;;5053598;28;20733;-74
2022/10/28 05:24:04;;;;;;;4.00;2.20;;;19.60;99.90;;;;;;5053611;28;20556;-73
2022/10/28 05:26:30;;;;;;;5.57;2.97;;;19.60;99.90;;;;;;5053982;28;20242;-73
2022/10/28 05:28:56;;;;;;;7.47;3.00;;;19.60;99.90;;;;;;5032171;28;20670;-75
2022/10/28 05:31:21;;;;;;;7.13;2.90;;;19.60;99.90;;;;;;5044306;28;20200;-74
2022/10/28 05:33:47;;;;;;;8.37;2.13;;;19.60;99.90;;;;;;5035289;28;20656;-74
2022/10/28 05:36:13;;;;;;;6.60;2.70;;;19.60;99.90;;;;;;5052407;28;20161;-75
2022/10/28 05:38:39;;;;;;;8.90;3.90;;;19.50;99.90;;;;;;5053594;28;20173;-74
2022/10/28 05:41:05;;;;;;;5.83;2.70;;;19.50;99.90;;;;;;5053504;28;20778;-75
2022/10/28 05:43:30;;;;;;;5.10;2.63;;;19.50;99.90;;;;;;5053104;28;20176;-74
2022/10/28 05:45:56;;;;;;;12.67;3.33;;;19.50;99.90;;;;;;5035582;28;20570;-75
2022/10/28 05:48:24;;;;;;;4.97;3.23;;;19.40;99.90;;;;;;5053241;28;20202;-75
2022/10/28 05:50:50;;;;;;;8.00;3.27;;;19.40;99.90;;;;;;5053215;28;20591;-75
2022/10/28 05:53:16;;;;;;;6.67;2.50;;;19.50;99.90;;;;;;5052880;28;20745;-74
2022/10/28 05:55:42;;;;;;;9.30;3.70;;;19.50;99.90;;;;;;5051678;28;20176;-74
2022/10/28 05:58:08;;;;;;;8.90;2.83;;;19.40;99.90;;;;;;5052917;28;20567;-74
2022/10/28 06:00:35;;;;;;;6.73;3.50;;;19.40;99.90;;;;;;5047777;28;20201;-75
2022/10/28 06:03:08;;;;;;;3.93;2.27;;;19.40;99.90;;;;;;5040562;28;20580;-74
2022/10/28 06:05:36;;;;;;;8.07;2.90;;;19.50;99.90;;;;;;5035052;28;20579;-74
2022/10/28 06:08:03;;;;;;;7.33;2.30;;;19.40;99.90;;;;;;5052507;28;20684;-74
2022/10/28 06:10:29;;;;;;;3.90;2.10;;;19.40;99.90;;;;;;5052771;28;20607;-74
2022/10/28 06:12:55;;;;;;;6.10;2.60;;;19.40;99.90;;;;;;5052293;28;20582;-75
2022/10/28 06:15:21;;;;;;;4.70;2.60;;;19.40;99.90;;;;;;5052757;28;20643;-75
2022/10/28 06:17:48;;;;;;;10.93;3.20;;;19.50;99.90;;;;;;5052649;28;20670;-74
2022/10/28 06:20:15;;;;;;;7.23;2.53;;;19.40;99.90;;;;;;5034615;28;20811;-74
2022/10/28 06:22:55;;;;;;;6.43;3.93;;;19.40;99.90;;;;;;5052117;28;20578;-75
2022/10/28 06:25:23;;;;;;;10.10;3.33;;;19.40;99.90;;;;;;5034697;28;20674;-75
2022/10/28 06:27:59;;;;;;;4.40;3.10;;;19.40;99.90;;;;;;5052428;28;20969;-75
2022/10/28 06:30:26;;;;;;;9.00;3.47;;;19.40;99.90;;;;;;5027747;28;20631;-74
2022/10/28 06:32:55;;;;;;;8.53;2.63;;;19.40;99.90;;;;;;5034004;28;20564;-75
2022/10/28 06:35:20;;;;;;;5.73;2.93;;;19.50;99.90;;;;;;5049886;28;20620;-74
2022/10/28 06:37:46;;;;;;;9.03;3.07;;;19.40;99.90;;;;;;5051412;28;20647;-75
2022/10/28 06:40:12;;;;;;;11.90;4.23;;;19.40;99.90;;;;;;5052016;28;20189;-74
2022/10/28 06:42:38;;;;;;;7.30;3.10;;;19.50;99.90;;;;;;5033673;28;20169;-75
2022/10/28 06:45:04;;;;;;;9.17;2.80;;;19.50;99.90;;;;;;5022616;28;21172;-75
2022/10/28 06:47:30;;;;;;;8.00;3.20;;;19.50;99.90;;;;;;5014931;28;20256;-75
2022/10/28 06:49:55;;;;;;;6.80;3.30;;;19.50;99.90;;;;;;5050999;28;20611;-74
2022/10/28 06:52:21;;;;;;;11.10;3.33;;;19.60;99.90;;;;;;5046226;28;20181;-75
2022/10/28 06:54:47;;;;;;;5.90;2.93;;;19.60;99.90;;;;;;5050570;28;20181;-76
2022/10/28 06:57:13;;;;;;;7.80;3.47;;;19.60;99.90;;;;;;5052006;28;20181;-75
2022/10/28 06:59:39;;;;;;;6.50;4.00;;;19.60;99.90;;;;;;5051739;28;20191;-75
2022/10/28 07:02:05;;;;;;;5.77;2.73;;;19.70;99.90;;;;;;5051526;28;20180;-75
2022/10/28 07:04:32;;;;;;;8.97;3.60;;;19.70;99.90;;;;;;5051734;28;21149;-76
2022/10/28 07:06:58;;;;;;;6.43;2.97;;;19.80;99.90;;;;;;5033776;28;20588;-76
2022/10/28 07:09:24;;;;;;;8.43;3.23;;;19.80;99.90;;;;;;5050587;28;20564;-79
2022/10/28 07:11:50;;;;;;;4.10;2.23;;;19.90;99.90;;;;;;5033730;28;20612;-78
2022/10/28 07:14:15;;;;;;;9.50;2.87;;;19.90;99.90;;;;;;5044866;28;20689;-78
2022/10/28 07:16:41;;;;;;;6.30;2.70;;;20.00;99.90;;;;;;5042360;28;20734;-78
2022/10/28 07:19:08;;;;;;;7.13;3.17;;;20.00;99.90;;;;;;5050892;28;20196;-78
2022/10/28 07:21:34;;;;;;;8.37;2.93;;;20.10;99.90;;;;;;5039703;28;20706;-78
2022/10/28 07:24:00;;;;;;;3.77;2.57;;;20.20;99.90;;;;;;5051121;28;20614;-78
2022/10/28 07:26:27;;;;;;;13.20;2.77;;;20.20;99.90;;;;;;5051399;28;20633;-78
2022/10/28 07:28:53;;;;;;;6.67;2.63;;;20.30;99.90;;;;;;5051367;28;20718;-78
2022/10/28 07:31:19;;;;;;;10.10;3.00;;;20.40;99.90;;;;;;5051597;28;20982;-78
2022/10/28 07:33:51;;;;;;;8.17;3.57;;;20.40;99.90;;;;;;5051305;28;20563;-78
2022/10/28 07:36:17;;;;;;;7.30;3.83;;;20.50;99.90;;;;;;5050470;28;20574;-77
2022/10/28 07:38:43;;;;;;;5.13;2.70;;;20.60;99.90;;;;;;5051499;28;20556;-78
2022/10/28 07:41:09;;;;;;;4.60;2.60;;;20.70;99.90;;;;;;5016731;28;20607;-77
2022/10/28 07:43:38;;;;;;;7.53;2.70;;;20.70;99.90;;;;;;5051262;28;20204;-74
2022/10/28 07:46:06;;;;;;;9.10;2.73;;;20.80;99.90;;;;;;5050204;28;21146;-75
2022/10/28 07:48:32;;;;;;;7.20;2.80;;;20.80;99.90;;;;;;5051242;28;20626;-74
2022/10/28 07:51:04;;;;;;;11.10;3.50;;;20.90;99.90;;;;;;5033380;28;20591;-75
2022/10/28 07:53:30;;;;;;;5.83;2.47;;;20.90;99.90;;;;;;5050853;28;20563;-74
2022/10/28 07:55:57;;;;;;;8.40;2.60;;;21.10;99.90;;;;;;5051156;28;20587;-75
2022/10/28 07:58:23;;;;;;;7.43;3.50;;;21.20;99.90;;;;;;5051147;28;20575;-75
2022/10/28 08:00:49;;;;;;;8.83;3.03;;;21.20;99.90;;;;;;5052974;28;20785;-75
2022/10/28 08:03:14;;;;;;;8.00;3.43;;;21.30;99.90;;;;;;5037048;28;20173;-75
2022/10/28 08:05:40;;;;;;;5.40;2.67;;;21.40;99.90;;;;;;5055373;28;20161;-75
2022/10/28 08:08:06;;;;;;;10.50;3.13;;;21.40;99.90;;;;;;5037103;28;20735;-75
2022/10/28 08:10:32;;;;;;;5.20;2.90;;;21.50;99.90;;;;;;5054977;28;20274;-75
2022/10/28 08:12:59;;;;;;;5.40;2.50;;;21.60;99.90;;;;;;5036783;28;20212;-75
2022/10/28 08:15:25;;;;;;;12.33;4.20;;;21.70;99.90;;;;;;5053805;28;20256;-75
2022/10/28 08:17:52;;;;;;;4.47;2.70;;;21.70;99.90;;;;;;5053978;28;20726;-75
2022/10/28 08:20:18;;;;;;;7.40;2.60;;;21.80;99.90;;;;;;5054764;28;20649;-75
2022/10/28 08:22:45;;;;;;;9.20;3.40;;;21.90;99.90;;;;;;5054389;28;20567;-75
2022/10/28 08:25:11;;;;;;;5.60;2.90;;;22.10;99.90;;;;;;5049213;28;20602;-76
2022/10/28 08:27:36;;;;;;;10.43;2.63;;;22.10;99.90;;;;;;5056269;28;20634;-75
2022/10/28 08:30:03;;;;;;;6.63;2.63;;;22.20;99.90;;;;;;5055323;28;20196;-74
2022/10/28 08:32:29;;;;;;;10.60;3.43;;;22.20;99.90;;;;;;5053846;28;20594;-75
2022/10/28 08:34:54;;;;;;;5.97;2.40;;;22.30;99.90;;;;;;5054955;28;20659;-75
2022/10/28 08:37:20;;;;;;;6.80;3.10;;;22.30;99.90;;;;;;5055809;28;20260;-75
2022/10/28 08:39:46;;;;;;;11.23;3.83;;;22.30;99.90;;;;;;5044898;28;20181;-74
2022/10/28 08:42:21;;;;;;;7.50;2.83;;;22.20;99.90;;;;;;5039067;28;20188;-74
2022/10/28 08:45:12;;;;;;;7.90;2.90;;;22.20;99.90;;;;;;5034424;28;20212;-74
2022/10/28 08:47:38;;;;;;;6.10;3.20;;;22.20;99.90;;;;;;5022992;28;20640;-74
2022/10/28 08:50:40;;;;;;;6.20;2.70;;;22.20;99.90;;;;;;5021879;28;20621;-74
2022/10/28 08:53:19;;;;;;;5.47;2.40;;;22.20;99.90;;;;;;4992983;28;20592;-76
2022/10/28 08:55:48;;;;;;;7.80;2.93;;;22.30;99.90;;;;;;5051505;28;20597;-75
2022/10/28 08:58:29;;;;;;;6.90;2.60;;;22.40;99.90;;;;;;5037355;28;20612;-75
2022/10/28 09:00:58;;;;;;;8.90;2.80;;;22.70;99.90;;;;;;5016115;28;20765;-75
2022/10/28 09:03:52;;;;;;;5.47;2.90;;;23.30;99.90;;;;;;5033768;28;20561;-76
2022/10/28 09:06:18;;;;;;;6.97;2.60;;;23.90;99.90;;;;;;5029604;28;20595;-75
2022/10/28 09:08:49;;;;;;;10.70;2.60;;;24.30;99.90;;;;;;5033687;28;20620;-76
2022/10/28 09:12:02;;;;;;;5.30;2.60;;;24.60;99.90;;;;;;5033054;28;20604;-75
2022/10/28 09:14:52;;;;;;;6.13;2.50;;;24.50;99.90;;;;;;5024720;28;21144;-75
2022/10/28 09:17:38;;;;;;;5.10;2.30;;;24.80;99.90;;;;;;5033668;28;20568;-76
2022/10/28 09:20:28;;;;;;;8.87;2.40;;;25.30;99.90;;;;;;5016140;28;20605;-79
2022/10/28 09:22:58;;;;;;;7.27;3.00;;;25.70;99.90;;;;;;5033217;28;20565;-77
2022/10/28 09:25:33;;;;;;;8.33;3.93;;;26.10;99.90;;;;;;5027786;28;20591;-79
2022/10/28 09:28:19;;;;;;;10.87;3.97;;;26.30;99.90;;;;;;5040081;28;21057;-80
2022/10/28 09:30:58;;;;;;;8.60;3.07;;;26.50;99.90;;;;;;4988839;28;20689;-79
2022/10/28 09:34:09;;;;;;;9.97;3.10;;;26.70;99.90;;;;;;5041151;28;20578;-78
2022/10/28 09:36:44;;;;;;;11.17;3.10;;;27.00;99.90;;;;;;4971731;28;20587;-78
2022/10/28 09:39:17;;;;;;;10.20;3.53;;;27.20;99.90;;;;;;5046655;28;20615;-79
2022/10/28 09:41:46;;;;;;;6.73;2.67;;;27.20;99.90;;;;;;5034872;28;20931;-79
2022/10/28 09:44:21;;;;;;;7.83;3.07;;;27.00;99.90;;;;;;5053071;28;20566;-80
2022/10/28 09:46:52;;;;;;;9.17;3.30;;;26.90;99.90;;;;;;5048401;28;20583;-80
2022/10/28 09:49:23;;;;;;;6.17;2.90;;;26.90;99.90;;;;;;5033994;28;20582;-80
2022/10/28 09:51:58;;;;;;;8.83;2.30;;;27.00;99.90;;;;;;4999437;28;20592;-80
2022/10/28 09:54:47;;;;;;;8.00;3.33;;;27.10;99.90;;;;;;5033935;28;20565;-79
2022/10/28 09:57:13;;;;;;;6.47;2.50;;;26.90;99.90;;;;;;5032004;28;20564;-80
2022/10/28 09:59:39;;;;;;;6.90;3.00;;;27.00;99.90;;;;;;5054938;28;20574;-79
2022/10/28 10:02:17;;;;;;;7.30;2.50;;;27.10;99.90;;;;;;5036398;28;20186;-80
2022/10/28 10:04:43;;;;;;;9.10;2.63;;;27.20;99.90;;;;;;5026120;28;20181;-80
2022/10/28 10:07:17;;;;;;;9.37;2.50;;;27.30;99.90;;;;;;5015508;28;20586;-80
2022/10/28 10:09:44;;;;;;;11.20;2.73;;;27.40;99.90;;;;;;5033332;28;20592;-80
2022/10/28 10:12:11;;;;;;;9.73;3.00;;;27.40;99.90;;;;;;5033027;28;20600;-79
2022/10/28 10:14:43;;;;;;;5.20;2.90;;;27.50;99.90;;;;;;5031121;28;20587;-80
2022/10/28 10:17:15;;;;;;;6.77;3.03;;;27.40;99.90;;;;;;5015081;28;20630;-80
2022/10/28 10:20:06;;;;;;;12.57;3.23;;;27.50;99.90;;;;;;5013997;28;20634;-79
2022/10/28 10:22:38;;;;;;;7.33;2.53;;;27.50;99.90;;;;;;5032742;28;20584;-80
2022/10/28 10:25:24;;;;;;;7.90;2.70;;;27.60;99.90;;;;;;5040164;28;20580;-79
2022/10/28 10:27:56;;;;;;;8.17;3.07;;;27.60;98.40;;;;;;5031564;28;20628;-79
2022/10/28 10:30:44;;;;;;;12.10;2.80;;;27.70;99.90;;;;;;5033280;28;20608;-80
2022/10/28 10:33:30;;;;;;;5.23;2.20;;;27.90;99.90;;;;;;5030752;28;20568;-75
2022/10/28 10:36:16;;;;;;;8.30;3.50;;;28.00;99.90;;;;;;4999764;28;20587;-75
2022/10/28 10:38:54;;;;;;;7.90;2.77;;;28.00;99.90;;;;;;5031383;28;20576;-75
2022/10/28 10:41:37;;;;;;;12.13;2.40;;;28.20;99.90;;;;;;5019318;28;20617;-75
2022/10/28 10:44:21;;;;;;;5.53;2.30;;;28.30;99.90;;;;;;4994838;28;20616;-75
2022/10/28 10:46:59;;;;;;;6.73;2.97;;;28.40;99.90;;;;;;5042906;28;20567;-75
2022/10/28 10:49:26;;;;;;;5.93;2.77;;;28.40;99.90;;;;;;5037701;28;20587;-75
2022/10/28 10:51:57;;;;;;;7.60;2.40;;;28.40;99.90;;;;;;5033774;28;20611;-76
2022/10/28 10:54:25;;;;;;;9.03;4.07;;;28.30;99.80;;;;;;5051593;28;20576;-75
2022/10/28 10:56:53;;;;;;;7.17;3.17;;;28.20;99.20;;;;;;5051925;28;20914;-76
2022/10/28 10:59:28;;;;;;;7.67;2.90;;;28.00;99.20;;;;;;5027411;28;20600;-75
2022/10/28 11:01:56;;;;;;;9.10;2.83;;;27.90;99.30;;;;;;5048367;28;20622;-76
2022/10/28 11:04:25;;;;;;;8.67;3.47;;;27.80;99.10;;;;;;5051328;28;20573;-76
2022/10/28 11:07:01;;;;;;;4.63;2.80;;;27.70;99.10;;;;;;5051754;28;20905;-75
2022/10/28 11:09:38;;;;;;;6.17;2.57;;;27.60;99.20;;;;;;5051626;28;20590;-76
2022/10/28 11:12:27;;;;;;;9.67;3.60;;;27.60;99.70;;;;;;5050043;28;20571;-76
2022/10/28 11:15:02;;;;;;;5.63;2.07;;;27.60;99.30;;;;;;5051448;28;20563;-76
2022/10/28 11:17:31;;;;;;;14.23;3.40;;;27.50;98.80;;;;;;5033828;28;21249;-76
2022/10/28 11:20:02;;;;;;;8.70;3.20;;;27.50;99.20;;;;;;5034137;28;20614;-75
2022/10/28 11:23:06;;;;;;;6.93;2.33;;;27.50;99.20;;;;;;5049634;28;20584;-76
2022/10/28 11:25:36;;;;;;;6.17;2.83;;;27.40;98.60;;;;;;5035474;28;20582;-75
2022/10/28 11:28:32;;;;;;;8.53;3.27;;;27.30;99.10;;;;;;5047645;28;20636;-76
2022/10/28 11:31:33;;;;;;;10.13;2.90;;;27.20;99.40;;;;;;5029551;28;20661;-76
2022/10/28 11:34:17;;;;;;;9.20;2.47;;;27.20;99.50;;;;;;5032425;28;20580;-76
2022/10/28 11:37:13;;;;;;;5.57;2.43;;;27.30;99.60;;;;;;5039872;28;20568;-76
2022/10/28 11:39:55;;;;;;;4.97;2.20;;;27.30;99.70;;;;;;5025682;28;20613;-77
2022/10/28 11:42:38;;;;;;;6.93;2.20;;;27.40;99.70;;;;;;5044747;28;20579;-77
2022/10/28 11:45:15;;;;;;;6.67;3.70;;;27.40;99.80;;;;;;5032990;28;21242;-77
2022/10/28 11:47:51;;;;;;;10.37;2.47;;;27.50;99.50;;;;;;5046606;28;20626;-76
2022/10/28 11:50:30;;;;;;;10.50;3.10;;;27.50;99.30;;;;;;5021626;28;21189;-75
2022/10/28 11:53:14;;;;;;;7.57;2.57;;;27.50;98.90;;;;;;5036976;28;20580;-76
2022/10/28 11:55:50;;;;;;;9.83;2.80;;;27.60;99.00;;;;;;5041740;28;20620;-77
2022/10/28 11:58:40;;;;;;;9.30;2.47;;;27.60;98.70;;;;;;5036905;28;21055;-77
2022/10/28 12:01:22;;;;;;;14.73;2.80;;;27.60;98.70;;;;;;5028946;28;20688;-78
2022/10/28 12:04:18;;;;;;;9.97;2.30;;;27.60;97.80;;;;;;5000354;28;20593;-77
2022/10/28 12:06:53;;;;;;;8.00;2.87;;;27.60;98.20;;;;;;5041331;28;21323;-75
2022/10/28 12:10:00;;;;;;;5.17;2.93;;;27.60;98.00;;;;;;5019934;28;20585;-75
2022/10/28 12:12:55;;;;;;;6.40;1.60;;;27.60;97.50;;;;;;5017433;28;20596;-75
2022/10/28 12:15:48;;;;;;;5.57;2.03;;;27.60;98.00;;;;;;5038083;28;20605;-75
2022/10/28 12:18:44;;;;;;;6.60;2.40;;;27.60;97.70;;;;;;5003987;28;21230;-76
2022/10/28 12:21:19;;;;;;;6.93;1.87;;;27.70;97.20;;;;;;5034922;28;21132;-75
2022/10/28 12:23:46;;;;;;;6.00;2.23;;;27.70;97.40;;;;;;5041355;28;20637;-75
2022/10/28 12:26:16;;;;;;;6.23;2.27;;;27.70;97.00;;;;;;5045793;28;20588;-74
2022/10/28 12:28:42;;;;;;;10.57;3.90;;;27.70;96.90;;;;;;5032079;28;20705;-75
2022/10/28 12:31:22;;;;;;;9.87;3.40;;;27.60;95.60;;;;;;5034427;28;20759;-75
2022/10/28 12:33:54;;;;;;;13.47;3.30;;;27.60;95.80;;;;;;5041924;28;20169;-76
2022/10/28 12:36:38;;;;;;;8.00;3.00;;;27.60;96.00;;;;;;5046475;28;20583;-75
2022/10/28 12:39:27;;;;;;;6.10;2.57;;;27.60;96.00;;;;;;5018443;28;20974;-77
2022/10/28 12:42:01;;;;;;;8.20;2.67;;;27.60;95.70;;;;;;5041332;28;20612;-76
2022/10/28 12:44:31;;;;;;;4.80;1.83;;;27.60;95.50;;;;;;5037949;28;20580;-75
2022/10/28 12:47:20;;;;;;;7.80;2.17;;;27.60;95.60;;;;;;5046494;28;20584;-74
2022/10/28 12:50:10;;;;;;;11.10;2.77;;;27.60;93.50;;;;;;5037686;28;20608;-75
2022/10/28 12:52:54;;;;;;;8.57;2.17;;;27.50;94.80;;;;;;5026434;28;20986;-75
2022/10/28 12:55:44;;;;;;;5.73;2.23;;;27.60;94.90;;;;;;5041225;28;20611;-75
2022/10/28 12:58:39;;;;;;;13.70;6.90;;;27.50;94.80;;;;;;5036470;28;20979;-75
2022/10/28 13:01:14;;;;;;;9.40;4.90;;;27.60;94.70;;;;;;5037764;28;21307;-75
2022/10/28 13:03:40;;;;;;;11.50;3.93;;;27.70;94.60;;;;;;5043933;28;21141;-75
2022/10/28 13:06:27;;;;;;;8.40;3.43;;;27.70;94.90;;;;;;5044110;28;20569;-75
2022/10/28 13:09:14;;;;;;;10.70;3.40;;;27.80;95.00;;;;;;5043554;28;20177;-75
2022/10/28 13:11:59;;;;;;;11.33;3.50;;;27.80;94.00;;;;;;5030000;28;20645;-75